sensor_id;sensor_type;location;lat;lon;timestamp;temperature;humidity
8475;DHT22;4274;52.012;8.448;2023-08-21T00:00:52;20.00;99.90
8475;DHT22;4274;52.012;8.448;2023-08-21T00:03:18;20.00;99.90
8475;DHT22;4274;52.012;8.448;2023-08-21T00:05:43;19.90;99.90
8475;DHT22;4274;52.012;8.448;2023-08-21T00:08:09;19.90;99.90
8475;DHT22;4274;52.012;8.448;2023-08-21T00:10:37;19.90;99.90
8475;DHT22;4274;52.012;8.448;2023-08-21T00:13:03;19.90;99.90
8475;DHT22;4274;52.012;8.448;2023-08-21T00:15:29;19.90;99.90
8475;DHT22;4274;52.012;8.448;2023-08-21T00:17:54;19.80;99.90
8475;DHT22;4274;52.012;8.448;2023-08-21T00:20:20;19.80;99.90
8475;DHT22;4274;52.012;8.448;2023-08-21T00:22:46;19.80;99.90
8475;DHT22;4274;52.012;8.448;2023-08-21T00:25:11;19.70;99.90
8475;DHT22;4274;52.012;8.448;2023-08-21T00:27:37;19.70;99.90
8475;DHT22;4274;52.012;8.448;2023-08-21T00:30:03;19.60;99.90
8475;DHT22;4274;52.012;8.448;2023-08-21T00:32:28;19.60;99.90
8475;DHT22;4274;52.012;8.448;2023-08-21T00:34:54;19.60;99.90
8475;DHT22;4274;52.012;8.448;2023-08-21T00:37:19;19.50;99.90
8475;DHT22;4274;52.012;8.448;2023-08-21T00:39:45;19.50;99.90
8475;DHT22;4274;52.012;8.448;2023-08-21T00:42:11;19.50;99.90
8475;DHT22;4274;52.012;8.448;2023-08-21T00:44:36;19.50;99.90
8475;DHT22;4274;52.012;8.448;2023-08-21T00:47:02;19.40;99.90
8475;DHT22;4274;52.012;8.448;2023-08-21T00:49:28;19.40;99.90
8475;DHT22;4274;52.012;8.448;2023-08-21T00:51:54;19.40;99.90
8475;DHT22;4274;52.012;8.448;2023-08-21T00:54:20;19.40;99.90
8475;DHT22;4274;52.012;8.448;2023-08-21T00:56:46;19.30;99.90
8475;DHT22;4274;52.012;8.448;2023-08-21T00:59:12;19.30;99.90
8475;DHT22;4274;52.012;8.448;2023-08-21T01:01:38;19.30;99.90
8475;DHT22;4274;52.012;8.448;2023-08-21T01:04:04;19.30;99.90
8475;DHT22;4274;52.012;8.448;2023-08-21T01:06:30;19.30;99.90
8475;DHT22;4274;52.012;8.448;2023-08-21T01:09:03;19.30;99.90
8475;DHT22;4274;52.012;8.448;2023-08-21T01:14:28;19.40;99.90
8475;DHT22;4274;52.012;8.448;2023-08-21T01:16:58;19.40;99.90
8475;DHT22;4274;52.012;8.448;2023-08-21T01:19:44;19.50;99.90
8475;DHT22;4274;52.012;8.448;2023-08-21T01:22:11;19.50;99.90
8475;DHT22;4274;52.012;8.448;2023-08-21T01:24:37;19.50;99.90
8475;DHT22;4274;52.012;8.448;2023-08-21T01:27:03;19.50;99.90
8475;DHT22;4274;52.012;8.448;2023-08-21T01:29:29;19.60;99.90
8475;DHT22;4274;52.012;8.448;2023-08-21T01:32:15;19.60;99.90
8475;DHT22;4274;52.012;8.448;2023-08-21T01:34:43;19.60;99.90
8475;DHT22;4274;52.012;8.448;2023-08-21T01:37:09;19.60;99.90
8475;DHT22;4274;52.012;8.448;2023-08-21T01:39:35;19.50;99.90
8475;DHT22;4274;52.012;8.448;2023-08-21T01:42:01;19.50;99.90
8475;DHT22;4274;52.012;8.448;2023-08-21T01:44:26;19.50;99.90
8475;DHT22;4274;52.012;8.448;2023-08-21T01:46:55;19.60;99.90
8475;DHT22;4274;52.012;8.448;2023-08-21T01:49:21;19.50;99.90
8475;DHT22;4274;52.012;8.448;2023-08-21T01:51:46;19.60;99.90
8475;DHT22;4274;52.012;8.448;2023-08-21T01:54:12;19.60;99.90
8475;DHT22;4274;52.012;8.448;2023-08-21T01:56:38;19.60;99.90
8475;DHT22;4274;52.012;8.448;2023-08-21T01:59:04;19.60;99.90
8475;DHT22;4274;52.012;8.448;2023-08-21T02:01:31;19.60;99.90
8475;DHT22;4274;52.012;8.448;2023-08-21T02:03:57;19.60;99.90
8475;DHT22;4274;52.012;8.448;2023-08-21T02:06:22;19.60;99.90
8475;DHT22;4274;52.012;8.448;2023-08-21T02:08:49;19.50;99.90
8475;DHT22;4274;52.012;8.448;2023-08-21T02:11:14;19.50;99.90
8475;DHT22;4274;52.012;8.448;2023-08-21T02:13:40;19.50;99.90
8475;DHT22;4274;52.012;8.448;2023-08-21T02:16:05;19.50;99.90
8475;DHT22;4274;52.012;8.448;2023-08-21T02:18:31;19.40;99.90
8475;DHT22;4274;52.012;8.448;2023-08-21T02:20:57;19.40;99.90
8475;DHT22;4274;52.012;8.448;2023-08-21T02:23:22;19.30;99.90
8475;DHT22;4274;52.012;8.448;2023-08-21T02:25:49;19.30;99.90
8475;DHT22;4274;52.012;8.448;2023-08-21T02:28:15;19.20;99.90
8475;DHT22;4274;52.012;8.448;2023-08-21T02:30:41;19.20;99.90
8475;DHT22;4274;52.012;8.448;2023-08-21T02:33:07;19.10;99.90
8475;DHT22;4274;52.012;8.448;2023-08-21T02:35:32;19.10;99.90
8475;DHT22;4274;52.012;8.448;2023-08-21T02:37:58;19.10;99.90
8475;DHT22;4274;52.012;8.448;2023-08-21T02:40:24;19.10;99.90
8475;DHT22;4274;52.012;8.448;2023-08-21T02:42:49;19.10;99.90
8475;DHT22;4274;52.012;8.448;2023-08-21T02:45:15;19.10;99.90
8475;DHT22;4274;52.012;8.448;2023-08-21T02:47:41;19.10;99.90
8475;DHT22;4274;52.012;8.448;2023-08-21T02:50:08;19.10;99.90
8475;DHT22;4274;52.012;8.448;2023-08-21T02:52:34;19.20;99.90
8475;DHT22;4274;52.012;8.448;2023-08-21T02:55:01;19.20;99.90
8475;DHT22;4274;52.012;8.448;2023-08-21T02:57:27;19.20;99.90
8475;DHT22;4274;52.012;8.448;2023-08-21T02:59:53;19.20;99.90
8475;DHT22;4274;52.012;8.448;2023-08-21T03:02:19;19.20;99.90
8475;DHT22;4274;52.012;8.448;2023-08-21T03:04:45;19.10;99.90
8475;DHT22;4274;52.012;8.448;2023-08-21T03:07:11;19.10;99.90
8475;DHT22;4274;52.012;8.448;2023-08-21T03:09:37;19.10;99.90
8475;DHT22;4274;52.012;8.448;2023-08-21T03:12:02;19.10;99.90
8475;DHT22;4274;52.012;8.448;2023-08-21T03:14:28;19.10;99.90
8475;DHT22;4274;52.012;8.448;2023-08-21T03:16:54;19.00;99.90
8475;DHT22;4274;52.012;8.448;2023-08-21T03:19:20;19.00;99.90
8475;DHT22;4274;52.012;8.448;2023-08-21T03:21:45;19.00;99.90
8475;DHT22;4274;52.012;8.448;2023-08-21T03:24:11;19.00;99.90
8475;DHT22;4274;52.012;8.448;2023-08-21T03:26:36;19.00;99.90
8475;DHT22;4274;52.012;8.448;2023-08-21T03:29:02;19.00;99.90
8475;DHT22;4274;52.012;8.448;2023-08-21T03:31:27;19.00;99.90
8475;DHT22;4274;52.012;8.448;2023-08-21T03:33:53;19.00;99.90
8475;DHT22;4274;52.012;8.448;2023-08-21T03:36:20;19.00;99.90
8475;DHT22;4274;52.012;8.448;2023-08-21T03:38:45;19.00;99.90
8475;DHT22;4274;52.012;8.448;2023-08-21T03:41:11;18.90;99.90
8475;DHT22;4274;52.012;8.448;2023-08-21T03:43:37;18.90;99.90
8475;DHT22;4274;52.012;8.448;2023-08-21T03:46:03;18.90;99.90
8475;DHT22;4274;52.012;8.448;2023-08-21T03:48:28;18.80;99.90
8475;DHT22;4274;52.012;8.448;2023-08-21T03:50:54;18.80;99.90
8475;DHT22;4274;52.012;8.448;2023-08-21T03:53:20;18.80;99.90
8475;DHT22;4274;52.012;8.448;2023-08-21T03:55:45;18.80;99.90
8475;DHT22;4274;52.012;8.448;2023-08-21T03:58:12;18.80;99.90
8475;DHT22;4274;52.012;8.448;2023-08-21T04:00:37;18.80;99.90
8475;DHT22;4274;52.012;8.448;2023-08-21T04:03:03;18.80;99.90
8475;DHT22;4274;52.012;8.448;2023-08-21T04:05:28;18.80;99.90
8475;DHT22;4274;52.012;8.448;2023-08-21T04:07:54;18.80;99.90
8475;DHT22;4274;52.012;8.448;2023-08-21T04:10:19;18.80;99.90
8475;DHT22;4274;52.012;8.448;2023-08-21T04:12:45;18.70;99.90
8475;DHT22;4274;52.012;8.448;2023-08-21T04:15:10;18.80;99.90
8475;DHT22;4274;52.012;8.448;2023-08-21T04:17:36;18.80;99.90
8475;DHT22;4274;52.012;8.448;2023-08-21T04:20:02;18.80;99.90
8475;DHT22;4274;52.012;8.448;2023-08-21T04:22:28;18.80;99.90
8475;DHT22;4274;52.012;8.448;2023-08-21T04:24:53;18.70;99.90
8475;DHT22;4274;52.012;8.448;2023-08-21T04:27:19;18.80;99.90
8475;DHT22;4274;52.012;8.448;2023-08-21T04:29:44;18.80;99.90
8475;DHT22;4274;52.012;8.448;2023-08-21T04:32:10;18.80;99.90
8475;DHT22;4274;52.012;8.448;2023-08-21T04:34:36;18.80;99.90
8475;DHT22;4274;52.012;8.448;2023-08-21T04:37:01;18.80;99.90
8475;DHT22;4274;52.012;8.448;2023-08-21T04:39:27;18.80;99.90
8475;DHT22;4274;52.012;8.448;2023-08-21T04:41:52;18.80;99.90
8475;DHT22;4274;52.012;8.448;2023-08-21T04:44:18;18.80;99.90
8475;DHT22;4274;52.012;8.448;2023-08-21T04:46:48;18.80;99.90
8475;DHT22;4274;52.012;8.448;2023-08-21T04:49:13;18.80;99.90
8475;DHT22;4274;52.012;8.448;2023-08-21T04:51:39;18.80;99.90
8475;DHT22;4274;52.012;8.448;2023-08-21T04:54:05;18.80;99.90
8475;DHT22;4274;52.012;8.448;2023-08-21T04:56:30;18.80;99.90
8475;DHT22;4274;52.012;8.448;2023-08-21T04:58:56;18.80;99.90
8475;DHT22;4274;52.012;8.448;2023-08-21T05:01:21;18.80;99.90
8475;DHT22;4274;52.012;8.448;2023-08-21T05:03:47;18.80;99.90
8475;DHT22;4274;52.012;8.448;2023-08-21T05:06:12;18.80;99.90
8475;DHT22;4274;52.012;8.448;2023-08-21T05:08:38;18.80;99.90
8475;DHT22;4274;52.012;8.448;2023-08-21T05:11:03;18.80;99.90
8475;DHT22;4274;52.012;8.448;2023-08-21T05:13:29;18.80;99.90
8475;DHT22;4274;52.012;8.448;2023-08-21T05:15:56;18.80;99.90
8475;DHT22;4274;52.012;8.448;2023-08-21T05:18:22;18.80;99.90
8475;DHT22;4274;52.012;8.448;2023-08-21T05:20:49;18.80;99.90
8475;DHT22;4274;52.012;8.448;2023-08-21T05:23:15;18.90;99.90
8475;DHT22;4274;52.012;8.448;2023-08-21T05:25:41;18.90;99.90
8475;DHT22;4274;52.012;8.448;2023-08-21T05:28:07;19.00;99.90
8475;DHT22;4274;52.012;8.448;2023-08-21T05:30:33;19.00;99.90
8475;DHT22;4274;52.012;8.448;2023-08-21T05:32:58;19.00;99.90
8475;DHT22;4274;52.012;8.448;2023-08-21T05:35:24;19.00;99.90
8475;DHT22;4274;52.012;8.448;2023-08-21T05:37:49;19.00;99.90
8475;DHT22;4274;52.012;8.448;2023-08-21T05:40:15;19.10;99.90
8475;DHT22;4274;52.012;8.448;2023-08-21T05:42:40;19.00;99.90
8475;DHT22;4274;52.012;8.448;2023-08-21T05:45:06;19.00;99.90
8475;DHT22;4274;52.012;8.448;2023-08-21T05:47:32;19.00;99.90
8475;DHT22;4274;52.012;8.448;2023-08-21T05:49:57;19.00;99.90
8475;DHT22;4274;52.012;8.448;2023-08-21T05:52:23;19.00;99.90
8475;DHT22;4274;52.012;8.448;2023-08-21T05:54:49;19.00;99.90
8475;DHT22;4274;52.012;8.448;2023-08-21T05:57:15;19.00;99.90
8475;DHT22;4274;52.012;8.448;2023-08-21T05:59:45;19.10;99.90
8475;DHT22;4274;52.012;8.448;2023-08-21T06:02:11;19.20;99.90
8475;DHT22;4274;52.012;8.448;2023-08-21T06:04:39;19.30;99.90
8475;DHT22;4274;52.012;8.448;2023-08-21T06:07:05;19.40;99.90
8475;DHT22;4274;52.012;8.448;2023-08-21T06:09:30;19.50;99.90
8475;DHT22;4274;52.012;8.448;2023-08-21T06:12:02;19.60;99.90
8475;DHT22;4274;52.012;8.448;2023-08-21T06:14:28;19.70;99.90
8475;DHT22;4274;52.012;8.448;2023-08-21T06:17:00;19.80;99.90
8475;DHT22;4274;52.012;8.448;2023-08-21T06:19:27;20.00;99.90
8475;DHT22;4274;52.012;8.448;2023-08-21T06:21:53;20.10;99.90
8475;DHT22;4274;52.012;8.448;2023-08-21T06:24:19;20.10;99.90
8475;DHT22;4274;52.012;8.448;2023-08-21T06:26:45;20.30;99.90
8475;DHT22;4274;52.012;8.448;2023-08-21T06:29:10;20.50;99.90
8475;DHT22;4274;52.012;8.448;2023-08-21T06:31:36;20.80;99.90
8475;DHT22;4274;52.012;8.448;2023-08-21T06:34:01;21.10;99.90
8475;DHT22;4274;52.012;8.448;2023-08-21T06:36:27;21.20;99.90
8475;DHT22;4274;52.012;8.448;2023-08-21T06:38:52;21.30;99.90
8475;DHT22;4274;52.012;8.448;2023-08-21T06:41:18;21.30;99.90
8475;DHT22;4274;52.012;8.448;2023-08-21T06:43:45;21.30;99.90
8475;DHT22;4274;52.012;8.448;2023-08-21T06:46:11;21.30;99.90
8475;DHT22;4274;52.012;8.448;2023-08-21T06:48:38;21.40;99.90
8475;DHT22;4274;52.012;8.448;2023-08-21T06:51:04;21.50;99.90
8475;DHT22;4274;52.012;8.448;2023-08-21T06:53:30;21.70;99.90
8475;DHT22;4274;52.012;8.448;2023-08-21T06:55:56;21.70;99.90
8475;DHT22;4274;52.012;8.448;2023-08-21T06:58:22;21.60;99.90
8475;DHT22;4274;52.012;8.448;2023-08-21T07:00:47;21.40;99.90
8475;DHT22;4274;52.012;8.448;2023-08-21T07:03:13;21.40;99.90
8475;DHT22;4274;52.012;8.448;2023-08-21T07:05:38;21.50;99.90
8475;DHT22;4274;52.012;8.448;2023-08-21T07:08:04;21.60;99.90
8475;DHT22;4274;52.012;8.448;2023-08-21T07:10:35;21.80;99.90
8475;DHT22;4274;52.012;8.448;2023-08-21T07:13:00;21.90;99.90
8475;DHT22;4274;52.012;8.448;2023-08-21T07:15:26;22.20;99.90
8475;DHT22;4274;52.012;8.448;2023-08-21T07:17:51;22.20;99.90
8475;DHT22;4274;52.012;8.448;2023-08-21T07:20:17;22.30;99.90
8475;DHT22;4274;52.012;8.448;2023-08-21T07:22:43;22.40;99.90
8475;DHT22;4274;52.012;8.448;2023-08-21T07:25:08;22.30;99.90
8475;DHT22;4274;52.012;8.448;2023-08-21T07:27:34;22.20;99.90
8475;DHT22;4274;52.012;8.448;2023-08-21T07:30:00;22.10;99.90
8475;DHT22;4274;52.012;8.448;2023-08-21T07:32:26;22.00;99.90
8475;DHT22;4274;52.012;8.448;2023-08-21T07:34:53;21.80;99.90
8475;DHT22;4274;52.012;8.448;2023-08-21T07:37:19;21.90;99.90
8475;DHT22;4274;52.012;8.448;2023-08-21T07:39:45;22.10;99.90
8475;DHT22;4274;52.012;8.448;2023-08-21T07:42:11;22.30;99.90
8475;DHT22;4274;52.012;8.448;2023-08-21T07:44:41;22.40;99.90
8475;DHT22;4274;52.012;8.448;2023-08-21T07:47:07;22.50;99.90
8475;DHT22;4274;52.012;8.448;2023-08-21T07:49:32;22.60;99.90
8475;DHT22;4274;52.012;8.448;2023-08-21T07:51:58;22.70;99.90
8475;DHT22;4274;52.012;8.448;2023-08-21T07:54:24;22.80;99.90
8475;DHT22;4274;52.012;8.448;2023-08-21T07:56:50;23.00;99.90
8475;DHT22;4274;52.012;8.448;2023-08-21T07:59:16;23.20;99.90
8475;DHT22;4274;52.012;8.448;2023-08-21T08:01:42;23.30;99.90
8475;DHT22;4274;52.012;8.448;2023-08-21T08:04:08;23.30;99.90
8475;DHT22;4274;52.012;8.448;2023-08-21T08:06:34;23.40;99.90
8475;DHT22;4274;52.012;8.448;2023-08-21T08:09:00;23.50;99.90
8475;DHT22;4274;52.012;8.448;2023-08-21T08:11:25;23.60;99.90
8475;DHT22;4274;52.012;8.448;2023-08-21T08:13:51;23.70;99.90
8475;DHT22;4274;52.012;8.448;2023-08-21T08:16:16;23.80;99.90
8475;DHT22;4274;52.012;8.448;2023-08-21T08:18:42;23.90;99.90
8475;DHT22;4274;52.012;8.448;2023-08-21T08:21:08;23.90;99.90
8475;DHT22;4274;52.012;8.448;2023-08-21T08:23:34;23.90;99.90
8475;DHT22;4274;52.012;8.448;2023-08-21T08:26:00;24.00;99.90
8475;DHT22;4274;52.012;8.448;2023-08-21T08:28:25;24.00;99.90
8475;DHT22;4274;52.012;8.448;2023-08-21T08:30:51;24.10;99.90
8475;DHT22;4274;52.012;8.448;2023-08-21T08:33:17;24.10;99.90
8475;DHT22;4274;52.012;8.448;2023-08-21T08:35:43;24.10;99.90
8475;DHT22;4274;52.012;8.448;2023-08-21T08:38:08;24.10;99.90
8475;DHT22;4274;52.012;8.448;2023-08-21T08:40:41;24.20;99.90
8475;DHT22;4274;52.012;8.448;2023-08-21T08:43:08;24.40;99.90
8475;DHT22;4274;52.012;8.448;2023-08-21T08:45:34;24.50;99.90
8475;DHT22;4274;52.012;8.448;2023-08-21T08:48:00;24.50;99.90
8475;DHT22;4274;52.012;8.448;2023-08-21T08:50:29;24.30;99.90
8475;DHT22;4274;52.012;8.448;2023-08-21T08:52:55;24.10;99.90
8475;DHT22;4274;52.012;8.448;2023-08-21T08:55:22;24.00;99.90
8475;DHT22;4274;52.012;8.448;2023-08-21T08:57:47;23.70;99.90
8475;DHT22;4274;52.012;8.448;2023-08-21T09:00:13;23.70;99.90
8475;DHT22;4274;52.012;8.448;2023-08-21T09:02:39;23.60;99.90
8475;DHT22;4274;52.012;8.448;2023-08-21T09:05:05;23.70;99.90
8475;DHT22;4274;52.012;8.448;2023-08-21T09:07:32;24.00;99.90
8475;DHT22;4274;52.012;8.448;2023-08-21T09:09:57;24.30;99.90
8475;DHT22;4274;52.012;8.448;2023-08-21T09:12:23;24.50;99.90
8475;DHT22;4274;52.012;8.448;2023-08-21T09:14:48;24.90;99.90
8475;DHT22;4274;52.012;8.448;2023-08-21T09:17:15;25.10;99.90
8475;DHT22;4274;52.012;8.448;2023-08-21T09:19:41;25.30;99.90
8475;DHT22;4274;52.012;8.448;2023-08-21T09:22:18;25.40;99.90
8475;DHT22;4274;52.012;8.448;2023-08-21T09:25:04;25.60;99.90
8475;DHT22;4274;52.012;8.448;2023-08-21T09:27:35;25.80;99.90
8475;DHT22;4274;52.012;8.448;2023-08-21T09:30:09;25.50;99.90
8475;DHT22;4274;52.012;8.448;2023-08-21T09:32:52;25.50;99.90
8475;DHT22;4274;52.012;8.448;2023-08-21T09:35:19;25.80;99.90
8475;DHT22;4274;52.012;8.448;2023-08-21T09:37:46;25.80;99.90
8475;DHT22;4274;52.012;8.448;2023-08-21T09:40:12;25.80;99.90
8475;DHT22;4274;52.012;8.448;2023-08-21T09:42:39;25.50;99.90
8475;DHT22;4274;52.012;8.448;2023-08-21T09:45:06;25.30;99.90
8475;DHT22;4274;52.012;8.448;2023-08-21T09:47:32;24.90;99.90
8475;DHT22;4274;52.012;8.448;2023-08-21T09:49:59;24.60;99.90
8475;DHT22;4274;52.012;8.448;2023-08-21T09:52:26;25.00;99.90
8475;DHT22;4274;52.012;8.448;2023-08-21T09:54:56;25.60;99.90
8475;DHT22;4274;52.012;8.448;2023-08-21T09:57:22;26.30;99.90
8475;DHT22;4274;52.012;8.448;2023-08-21T09:59:52;26.90;99.90
8475;DHT22;4274;52.012;8.448;2023-08-21T10:02:22;27.30;99.90
8475;DHT22;4274;52.012;8.448;2023-08-21T10:04:49;27.80;99.90
8475;DHT22;4274;52.012;8.448;2023-08-21T10:07:16;27.90;99.90
8475;DHT22;4274;52.012;8.448;2023-08-21T10:09:46;27.80;99.90
8475;DHT22;4274;52.012;8.448;2023-08-21T10:12:14;27.60;99.90
8475;DHT22;4274;52.012;8.448;2023-08-21T10:14:41;27.30;99.90
8475;DHT22;4274;52.012;8.448;2023-08-21T10:17:07;27.20;99.90
8475;DHT22;4274;52.012;8.448;2023-08-21T10:19:35;27.50;99.90
8475;DHT22;4274;52.012;8.448;2023-08-21T10:22:00;28.00;99.90
8475;DHT22;4274;52.012;8.448;2023-08-21T10:24:37;28.70;99.90
8475;DHT22;4274;52.012;8.448;2023-08-21T10:27:03;29.40;99.90
8475;DHT22;4274;52.012;8.448;2023-08-21T10:29:29;30.00;99.90
8475;DHT22;4274;52.012;8.448;2023-08-21T10:32:04;30.50;99.90
8475;DHT22;4274;52.012;8.448;2023-08-21T10:34:35;30.80;99.90
8475;DHT22;4274;52.012;8.448;2023-08-21T10:37:04;30.60;99.90
8475;DHT22;4274;52.012;8.448;2023-08-21T10:39:32;29.90;99.90
8475;DHT22;4274;52.012;8.448;2023-08-21T10:42:02;28.90;99.90
8475;DHT22;4274;52.012;8.448;2023-08-21T10:47:33;27.50;99.90
8475;DHT22;4274;52.012;8.448;2023-08-21T10:50:05;27.40;99.90
8475;DHT22;4274;52.012;8.448;2023-08-21T10:52:36;27.70;99.90
8475;DHT22;4274;52.012;8.448;2023-08-21T10:55:03;27.90;99.90
8475;DHT22;4274;52.012;8.448;2023-08-21T10:57:31;28.00;99.90
8475;DHT22;4274;52.012;8.448;2023-08-21T11:00:08;27.80;99.90
8475;DHT22;4274;52.012;8.448;2023-08-21T11:02:41;27.40;99.90
8475;DHT22;4274;52.012;8.448;2023-08-21T11:05:08;27.20;99.90
8475;DHT22;4274;52.012;8.448;2023-08-21T11:07:42;27.30;99.90
8475;DHT22;4274;52.012;8.448;2023-08-21T11:10:16;28.20;99.90
8475;DHT22;4274;52.012;8.448;2023-08-21T11:12:56;29.60;99.90
8475;DHT22;4274;52.012;8.448;2023-08-21T11:15:22;30.50;99.90
8475;DHT22;4274;52.012;8.448;2023-08-21T11:17:58;31.00;99.90
8475;DHT22;4274;52.012;8.448;2023-08-21T11:20:42;31.80;99.90
8475;DHT22;4274;52.012;8.448;2023-08-21T11:23:08;32.80;99.90
8475;DHT22;4274;52.012;8.448;2023-08-21T11:25:38;33.00;99.90
8475;DHT22;4274;52.012;8.448;2023-08-21T11:28:04;33.20;99.90
8475;DHT22;4274;52.012;8.448;2023-08-21T11:30:34;33.70;99.90
8475;DHT22;4274;52.012;8.448;2023-08-21T11:33:11;34.10;99.90
8475;DHT22;4274;52.012;8.448;2023-08-21T11:35:38;34.70;99.90
8475;DHT22;4274;52.012;8.448;2023-08-21T11:38:04;34.80;97.00
8475;DHT22;4274;52.012;8.448;2023-08-21T11:40:30;34.60;99.30
8475;DHT22;4274;52.012;8.448;2023-08-21T11:43:05;34.60;96.30
8475;DHT22;4274;52.012;8.448;2023-08-21T11:45:31;34.00;96.10
8475;DHT22;4274;52.012;8.448;2023-08-21T11:47:57;33.40;96.10
8475;DHT22;4274;52.012;8.448;2023-08-21T11:50:23;32.60;97.10
8475;DHT22;4274;52.012;8.448;2023-08-21T11:52:55;32.00;96.20
8475;DHT22;4274;52.012;8.448;2023-08-21T11:55:22;31.60;96.90
8475;DHT22;4274;52.012;8.448;2023-08-21T11:57:51;31.50;97.00
8475;DHT22;4274;52.012;8.448;2023-08-21T12:00:18;31.60;98.10
8475;DHT22;4274;52.012;8.448;2023-08-21T12:03:00;31.80;96.50
8475;DHT22;4274;52.012;8.448;2023-08-21T12:05:28;31.80;98.50
8475;DHT22;4274;52.012;8.448;2023-08-21T12:07:54;32.10;99.90
8475;DHT22;4274;52.012;8.448;2023-08-21T12:10:24;32.20;97.00
8475;DHT22;4274;52.012;8.448;2023-08-21T12:12:50;32.20;96.80
8475;DHT22;4274;52.012;8.448;2023-08-21T12:15:15;32.00;96.10
8475;DHT22;4274;52.012;8.448;2023-08-21T12:17:41;31.50;96.40
8475;DHT22;4274;52.012;8.448;2023-08-21T12:20:07;30.90;97.70
8475;DHT22;4274;52.012;8.448;2023-08-21T12:22:36;31.00;99.90
8475;DHT22;4274;52.012;8.448;2023-08-21T12:28:24;31.30;99.90
8475;DHT22;4274;52.012;8.448;2023-08-21T12:30:49;31.80;98.30
8475;DHT22;4274;52.012;8.448;2023-08-21T12:33:15;32.00;98.80
8475;DHT22;4274;52.012;8.448;2023-08-21T12:35:41;32.20;98.50
8475;DHT22;4274;52.012;8.448;2023-08-21T12:38:11;32.10;98.70
8475;DHT22;4274;52.012;8.448;2023-08-21T12:40:38;31.60;98.30
8475;DHT22;4274;52.012;8.448;2023-08-21T12:43:04;31.00;99.40
8475;DHT22;4274;52.012;8.448;2023-08-21T12:45:30;30.70;99.90
8475;DHT22;4274;52.012;8.448;2023-08-21T12:47:55;30.50;98.80
8475;DHT22;4274;52.012;8.448;2023-08-21T12:50:21;30.20;99.90
8475;DHT22;4274;52.012;8.448;2023-08-21T12:52:47;30.20;99.90
8475;DHT22;4274;52.012;8.448;2023-08-21T12:55:12;30.60;99.60
8475;DHT22;4274;52.012;8.448;2023-08-21T12:57:39;31.10;99.90
8475;DHT22;4274;52.012;8.448;2023-08-21T13:00:05;31.90;99.90
8475;DHT22;4274;52.012;8.448;2023-08-21T13:02:31;32.60;99.50
8475;DHT22;4274;52.012;8.448;2023-08-21T13:04:56;33.00;99.90
8475;DHT22;4274;52.012;8.448;2023-08-21T13:07:22;33.30;99.40
8475;DHT22;4274;52.012;8.448;2023-08-21T13:09:47;33.60;99.80
8475;DHT22;4274;52.012;8.448;2023-08-21T13:12:13;33.80;99.30
8475;DHT22;4274;52.012;8.448;2023-08-21T13:14:39;33.60;99.20
8475;DHT22;4274;52.012;8.448;2023-08-21T13:17:04;33.20;97.80
8475;DHT22;4274;52.012;8.448;2023-08-21T13:19:30;32.60;97.10
8475;DHT22;4274;52.012;8.448;2023-08-21T13:21:55;31.80;98.80
8475;DHT22;4274;52.012;8.448;2023-08-21T13:24:21;31.40;99.90
8475;DHT22;4274;52.012;8.448;2023-08-21T13:26:47;31.50;98.50
8475;DHT22;4274;52.012;8.448;2023-08-21T13:29:12;31.50;98.40
8475;DHT22;4274;52.012;8.448;2023-08-21T13:31:38;31.20;99.90
8475;DHT22;4274;52.012;8.448;2023-08-21T13:34:03;31.10;99.90
8475;DHT22;4274;52.012;8.448;2023-08-21T13:36:29;30.90;98.80
8475;DHT22;4274;52.012;8.448;2023-08-21T13:38:54;30.40;98.90
8475;DHT22;4274;52.012;8.448;2023-08-21T13:41:20;30.00;99.40
8475;DHT22;4274;52.012;8.448;2023-08-21T13:43:45;29.70;99.90
8475;DHT22;4274;52.012;8.448;2023-08-21T13:46:11;29.50;99.90
8475;DHT22;4274;52.012;8.448;2023-08-21T13:48:37;29.50;99.90
8475;DHT22;4274;52.012;8.448;2023-08-21T13:51:03;29.50;99.90
8475;DHT22;4274;52.012;8.448;2023-08-21T13:53:28;29.40;99.90
8475;DHT22;4274;52.012;8.448;2023-08-21T13:55:54;29.20;99.90
8475;DHT22;4274;52.012;8.448;2023-08-21T13:58:20;29.10;99.90
8475;DHT22;4274;52.012;8.448;2023-08-21T14:00:46;28.80;99.90
8475;DHT22;4274;52.012;8.448;2023-08-21T14:03:12;28.30;99.90
8475;DHT22;4274;52.012;8.448;2023-08-21T14:05:37;28.00;99.90
8475;DHT22;4274;52.012;8.448;2023-08-21T14:08:03;27.70;99.90
8475;DHT22;4274;52.012;8.448;2023-08-21T14:10:29;27.50;99.90
8475;DHT22;4274;52.012;8.448;2023-08-21T14:12:56;27.20;99.90
8475;DHT22;4274;52.012;8.448;2023-08-21T14:15:22;27.10;99.90
8475;DHT22;4274;52.012;8.448;2023-08-21T14:17:48;27.20;99.90
8475;DHT22;4274;52.012;8.448;2023-08-21T14:20:15;27.40;99.90
8475;DHT22;4274;52.012;8.448;2023-08-21T14:22:40;27.50;99.90
8475;DHT22;4274;52.012;8.448;2023-08-21T14:25:06;27.60;99.90
8475;DHT22;4274;52.012;8.448;2023-08-21T14:27:32;27.60;99.90
8475;DHT22;4274;52.012;8.448;2023-08-21T14:29:58;27.70;99.90
8475;DHT22;4274;52.012;8.448;2023-08-21T14:32:24;27.60;99.90
8475;DHT22;4274;52.012;8.448;2023-08-21T14:34:50;27.40;99.90
8475;DHT22;4274;52.012;8.448;2023-08-21T14:37:18;27.10;99.90
8475;DHT22;4274;52.012;8.448;2023-08-21T14:39:44;26.90;99.90
8475;DHT22;4274;52.012;8.448;2023-08-21T14:42:09;26.70;99.90
8475;DHT22;4274;52.012;8.448;2023-08-21T14:44:35;26.60;99.90
8475;DHT22;4274;52.012;8.448;2023-08-21T14:47:00;26.30;99.90
8475;DHT22;4274;52.012;8.448;2023-08-21T14:49:26;26.20;99.90
8475;DHT22;4274;52.012;8.448;2023-08-21T14:51:52;26.10;99.90
8475;DHT22;4274;52.012;8.448;2023-08-21T14:54:18;26.10;99.90
8475;DHT22;4274;52.012;8.448;2023-08-21T14:56:43;26.00;99.90
8475;DHT22;4274;52.012;8.448;2023-08-21T14:59:09;25.90;99.90
8475;DHT22;4274;52.012;8.448;2023-08-21T15:01:38;25.80;99.90
8475;DHT22;4274;52.012;8.448;2023-08-21T15:04:05;25.80;99.90
8475;DHT22;4274;52.012;8.448;2023-08-21T15:06:30;25.80;99.90
8475;DHT22;4274;52.012;8.448;2023-08-21T15:08:56;25.80;99.90
8475;DHT22;4274;52.012;8.448;2023-08-21T15:11:22;25.70;99.90
8475;DHT22;4274;52.012;8.448;2023-08-21T15:13:47;25.70;99.90
8475;DHT22;4274;52.012;8.448;2023-08-21T15:16:13;25.60;99.90
8475;DHT22;4274;52.012;8.448;2023-08-21T15:18:38;25.50;99.90
8475;DHT22;4274;52.012;8.448;2023-08-21T15:21:04;25.50;99.90
8475;DHT22;4274;52.012;8.448;2023-08-21T15:23:29;25.40;99.90
8475;DHT22;4274;52.012;8.448;2023-08-21T15:25:55;25.30;99.90
8475;DHT22;4274;52.012;8.448;2023-08-21T15:28:20;25.30;99.90
8475;DHT22;4274;52.012;8.448;2023-08-21T15:30:46;25.30;99.90
8475;DHT22;4274;52.012;8.448;2023-08-21T15:33:12;25.30;99.90
8475;DHT22;4274;52.012;8.448;2023-08-21T15:35:37;25.30;99.90
8475;DHT22;4274;52.012;8.448;2023-08-21T15:38:03;25.40;99.90
8475;DHT22;4274;52.012;8.448;2023-08-21T15:40:29;25.30;99.90
8475;DHT22;4274;52.012;8.448;2023-08-21T15:42:55;25.30;99.90
8475;DHT22;4274;52.012;8.448;2023-08-21T15:45:21;25.20;99.90
8475;DHT22;4274;52.012;8.448;2023-08-21T15:47:48;25.20;99.90
8475;DHT22;4274;52.012;8.448;2023-08-21T15:50:14;25.20;99.90
8475;DHT22;4274;52.012;8.448;2023-08-21T15:52:40;25.10;99.90
8475;DHT22;4274;52.012;8.448;2023-08-21T15:55:06;25.00;99.90
8475;DHT22;4274;52.012;8.448;2023-08-21T15:57:32;24.90;99.90
8475;DHT22;4274;52.012;8.448;2023-08-21T15:59:58;24.90;99.90
8475;DHT22;4274;52.012;8.448;2023-08-21T16:02:23;24.80;99.90
8475;DHT22;4274;52.012;8.448;2023-08-21T16:04:49;24.90;99.90
8475;DHT22;4274;52.012;8.448;2023-08-21T16:07:15;24.90;99.90